SHU5667 UHSS-UHMM
Flight info
| Callsign | SHU5667 |
|---|---|
| Flight time | 2h 11m |
| Altitude | 35000 |
| Route | IDRUT5 IDRUT R446 LIKON B223 BANOT BANOT5K |
| Aircraft | A319/M-SDE3FGHIRWY/LB1 |
Departure
| Time | 2026-04-30 18:51 |
|---|---|
| Airport | Yuzhno-Sakhalinsk International Airport (UHSS) |
Arrival
| Time | 2026-04-30 21:03 |
|---|---|
| Airport | Sokol Airport (UHMM) |
| Time | Latitude | Longitude | Altitude | Speed | Heading |
|---|---|---|---|---|---|
| 2026-04-30 18:17 | 46.88809 | 142.72216 | 77 ft | 0 kts | 91° |
| 2026-04-30 18:38 | 46.88809 | 142.72191 | 68 ft | 4 kts | 91° |
| 2026-04-30 18:39 | 46.88809 | 142.72157 | 70 ft | 2 kts | 91° |
| 2026-04-30 18:39 | 46.88807 | 142.72121 | 69 ft | 4 kts | 64° |
| 2026-04-30 18:39 | 46.88790 | 142.72096 | 67 ft | 4 kts | 5° |
| 2026-04-30 18:39 | 46.88765 | 142.72095 | 67 ft | 4 kts | 2° |
| 2026-04-30 18:40 | 46.88755 | 142.72095 | 71 ft | 0 kts | 1° |
| 2026-04-30 18:46 | 46.88757 | 142.72095 | 70 ft | 2 kts | 1° |
| 2026-04-30 18:46 | 46.88795 | 142.72096 | 69 ft | 8 kts | 1° |
| 2026-04-30 18:46 | 46.88854 | 142.72096 | 72 ft | 9 kts | 359° |
| 2026-04-30 18:46 | 46.88918 | 142.72096 | 74 ft | 11 kts | 1° |
| 2026-04-30 18:47 | 46.89002 | 142.72056 | 71 ft | 14 kts | 333° |
| 2026-04-30 18:47 | 46.89075 | 142.71963 | 77 ft | 11 kts | 299° |
| 2026-04-30 18:47 | 46.89082 | 142.71934 | 71 ft | 0 kts | 278° |
| 2026-04-30 18:47 | 46.89082 | 142.71932 | 72 ft | 0 kts | 278° |
| 2026-04-30 18:48 | 46.89083 | 142.71925 | 72 ft | 3 kts | 275° |
| 2026-04-30 18:48 | 46.89082 | 142.71824 | 79 ft | 15 kts | 277° |
| 2026-04-30 18:48 | 46.89168 | 142.71756 | 69 ft | 16 kts | 0° |
| 2026-04-30 18:48 | 46.89283 | 142.71758 | 80 ft | 18 kts | 1° |
| 2026-04-30 18:49 | 46.89419 | 142.71747 | 83 ft | 19 kts | 1° |
| 2026-04-30 18:49 | 46.89527 | 142.71752 | 81 ft | 16 kts | 1° |
| 2026-04-30 18:49 | 46.89603 | 142.71786 | 82 ft | 9 kts | 100° |
| 2026-04-30 18:49 | 46.89549 | 142.71783 | 81 ft | 9 kts | 193° |
| 2026-04-30 18:50 | 46.89489 | 142.71766 | 84 ft | 8 kts | 181° |
| 2026-04-30 18:50 | 46.89486 | 142.71766 | 83 ft | 0 kts | 180° |
| 2026-04-30 18:50 | 46.89447 | 142.71765 | 82 ft | 30 kts | 181° |
| 2026-04-30 18:51 | 46.88981 | 142.71753 | 74 ft | 103 kts | 180° |
| 2026-04-30 18:51 | 46.88059 | 142.71732 | 89 ft | 158 kts | 180° |
| 2026-04-30 18:51 | 46.86938 | 142.71699 | 670 ft | 158 kts | 180° |
| 2026-04-30 18:51 | 46.85848 | 142.71663 | 1381 ft | 158 kts | 183° |
| 2026-04-30 18:52 | 46.84768 | 142.71637 | 1964 ft | 165 kts | 185° |
| 2026-04-30 18:52 | 46.83530 | 142.71601 | 2279 ft | 190 kts | 186° |
| 2026-04-30 18:52 | 46.82126 | 142.71555 | 2676 ft | 215 kts | 187° |
| 2026-04-30 18:52 | 46.81085 | 142.71523 | 2979 ft | 231 kts | 187° |
| 2026-04-30 18:53 | 46.78902 | 142.71467 | 4035 ft | 242 kts | 187° |
| 2026-04-30 18:53 | 46.78186 | 142.71452 | 4399 ft | 244 kts | 187° |
| 2026-04-30 18:53 | 46.76376 | 142.71416 | 5291 ft | 250 kts | 187° |
| 2026-04-30 18:53 | 46.74682 | 142.70952 | 6090 ft | 249 kts | 207° |
| 2026-04-30 18:54 | 46.73258 | 142.69493 | 6902 ft | 249 kts | 229° |
| 2026-04-30 18:54 | 46.72385 | 142.67349 | 7683 ft | 254 kts | 251° |
| 2026-04-30 18:54 | 46.72191 | 142.64842 | 8479 ft | 261 kts | 274° |
| 2026-04-30 18:54 | 46.72765 | 142.62295 | 9305 ft | 272 kts | 298° |
| 2026-04-30 18:55 | 46.74127 | 142.60275 | 10131 ft | 285 kts | 324° |
| 2026-04-30 18:55 | 46.78103 | 142.59935 | 11632 ft | 316 kts | 19° |
| 2026-04-30 18:55 | 46.80160 | 142.61376 | 11886 ft | 340 kts | 22° |
| 2026-04-30 18:56 | 46.84681 | 142.64585 | 12557 ft | 374 kts | 22° |
| 2026-04-30 18:56 | 46.87036 | 142.66257 | 12913 ft | 378 kts | 22° |
| 2026-04-30 18:56 | 46.89394 | 142.67988 | 12970 ft | 379 kts | 26° |
| 2026-04-30 18:57 | 46.93894 | 142.72085 | 13392 ft | 384 kts | 28° |
| 2026-04-30 18:57 | 46.96222 | 142.74026 | 13866 ft | 384 kts | 22° |
| 2026-04-30 18:57 | 46.98674 | 142.75504 | 13962 ft | 379 kts | 13° |
| 2026-04-30 18:58 | 47.03748 | 142.77089 | 13968 ft | 373 kts | 2° |
| 2026-04-30 18:58 | 47.06323 | 142.77474 | 13961 ft | 371 kts | 359° |
| 2026-04-30 18:58 | 47.08900 | 142.77650 | 13957 ft | 369 kts | 356° |
| 2026-04-30 18:59 | 47.13990 | 142.77224 | 13948 ft | 365 kts | 347° |
| 2026-04-30 19:00 | 47.21296 | 142.74555 | 13927 ft | 358 kts | 335° |
| 2026-04-30 19:00 | 47.23604 | 142.73172 | 13921 ft | 356 kts | 331° |
| 2026-04-30 19:00 | 47.27221 | 142.70427 | 13910 ft | 353 kts | 324° |
| 2026-04-30 19:01 | 47.30493 | 142.67206 | 13909 ft | 349 kts | 318° |
| 2026-04-30 19:01 | 47.32380 | 142.64953 | 13906 ft | 348 kts | 314° |
| 2026-04-30 19:02 | 47.35787 | 142.59952 | 13907 ft | 344 kts | 307° |
| 2026-04-30 19:02 | 47.38788 | 142.54471 | 13902 ft | 343 kts | 304° |
| 2026-04-30 19:03 | 47.41732 | 142.48991 | 13900 ft | 343 kts | 304° |
| 2026-04-30 19:03 | 47.44701 | 142.43460 | 13895 ft | 343 kts | 304° |
| 2026-04-30 19:04 | 47.47660 | 142.37934 | 13892 ft | 342 kts | 304° |
| 2026-04-30 19:04 | 47.50631 | 142.32378 | 15032 ft | 348 kts | 304° |
| 2026-04-30 19:05 | 47.53641 | 142.26726 | 16428 ft | 352 kts | 304° |
| 2026-04-30 19:05 | 47.56684 | 142.20981 | 17782 ft | 357 kts | 303° |
| 2026-04-30 19:06 | 47.59772 | 142.15157 | 18953 ft | 362 kts | 303° |
| 2026-04-30 19:06 | 47.61339 | 142.12199 | 19523 ft | 365 kts | 303° |
| 2026-04-30 19:06 | 47.64964 | 142.06806 | 20601 ft | 382 kts | 322° |
| 2026-04-30 19:07 | 47.70080 | 142.04176 | 21615 ft | 408 kts | 349° |
| 2026-04-30 19:07 | 47.72953 | 142.04150 | 22114 ft | 416 kts | 355° |
| 2026-04-30 19:08 | 47.78781 | 142.04341 | 23089 ft | 421 kts | 355° |
| 2026-04-30 19:08 | 47.84580 | 142.04517 | 23890 ft | 427 kts | 355° |
| 2026-04-30 19:08 | 47.87570 | 142.04601 | 24277 ft | 429 kts | 355° |
| 2026-04-30 19:09 | 47.93579 | 142.04771 | 25036 ft | 434 kts | 355° |
| 2026-04-30 19:09 | 47.96608 | 142.04856 | 25417 ft | 436 kts | 355° |
| 2026-04-30 19:09 | 47.99662 | 142.04938 | 25797 ft | 439 kts | 355° |
| 2026-04-30 19:10 | 48.05766 | 142.05111 | 26547 ft | 443 kts | 355° |
| 2026-04-30 19:10 | 48.11967 | 142.05283 | 27280 ft | 447 kts | 355° |
| 2026-04-30 19:11 | 48.15090 | 142.05373 | 27620 ft | 450 kts | 355° |
| 2026-04-30 19:11 | 48.21341 | 142.05566 | 28286 ft | 454 kts | 355° |
| 2026-04-30 19:11 | 48.24511 | 142.05663 | 28619 ft | 456 kts | 355° |
| 2026-04-30 19:12 | 48.27698 | 142.05754 | 28934 ft | 458 kts | 355° |
| 2026-04-30 19:12 | 48.30892 | 142.05845 | 29255 ft | 460 kts | 355° |
| 2026-04-30 19:12 | 48.34101 | 142.05942 | 29569 ft | 462 kts | 355° |
| 2026-04-30 19:13 | 48.40539 | 142.06144 | 30329 ft | 461 kts | 355° |
| 2026-04-30 19:13 | 48.46942 | 142.06335 | 31111 ft | 458 kts | 355° |
| 2026-04-30 19:13 | 48.50124 | 142.06425 | 31504 ft | 457 kts | 355° |
| 2026-04-30 19:14 | 48.53298 | 142.06516 | 31887 ft | 456 kts | 355° |
| 2026-04-30 19:14 | 48.56471 | 142.06610 | 32279 ft | 455 kts | 355° |
| 2026-04-30 19:14 | 48.59633 | 142.06711 | 32681 ft | 453 kts | 355° |
| 2026-04-30 19:14 | 48.62748 | 142.06811 | 33072 ft | 452 kts | 355° |
| 2026-04-30 19:15 | 48.65890 | 142.06905 | 33469 ft | 451 kts | 355° |
| 2026-04-30 19:15 | 48.72157 | 142.07092 | 34186 ft | 449 kts | 355° |
| 2026-04-30 19:15 | 48.75281 | 142.07184 | 34487 ft | 449 kts | 355° |
| 2026-04-30 19:16 | 48.78403 | 142.07272 | 34763 ft | 449 kts | 355° |
| 2026-04-30 19:16 | 48.81533 | 142.07362 | 34824 ft | 449 kts | 355° |
| 2026-04-30 19:17 | 48.90894 | 142.07641 | 34825 ft | 449 kts | 355° |
| 2026-04-30 19:17 | 49.00253 | 142.07921 | 34816 ft | 448 kts | 355° |
| 2026-04-30 19:18 | 49.09609 | 142.08217 | 34807 ft | 448 kts | 355° |
| 2026-04-30 19:19 | 49.15843 | 142.08401 | 34807 ft | 448 kts | 355° |
| 2026-04-30 19:19 | 49.25150 | 142.09732 | 34804 ft | 452 kts | 1° |
| 2026-04-30 19:20 | 49.31400 | 142.10913 | 34808 ft | 452 kts | 1° |
| 2026-04-30 19:21 | 49.40769 | 142.12696 | 34806 ft | 452 kts | 0° |
| 2026-04-30 19:22 | 49.53250 | 142.15035 | 34794 ft | 452 kts | 0° |
| 2026-04-30 19:23 | 49.71944 | 142.18613 | 34798 ft | 451 kts | 0° |
| 2026-04-30 19:24 | 49.81293 | 142.20420 | 34796 ft | 450 kts | 0° |
| 2026-04-30 19:25 | 49.96800 | 142.23394 | 34792 ft | 450 kts | 360° |
| 2026-04-30 19:26 | 50.09232 | 142.25794 | 34790 ft | 450 kts | 360° |
| 2026-04-30 19:27 | 50.18554 | 142.27616 | 34788 ft | 450 kts | 360° |
| 2026-04-30 19:28 | 50.27824 | 142.29420 | 34783 ft | 449 kts | 359° |
| 2026-04-30 19:29 | 50.40237 | 142.31865 | 34773 ft | 449 kts | 359° |
| 2026-04-30 19:30 | 50.52654 | 142.34330 | 34774 ft | 449 kts | 359° |
| 2026-04-30 19:31 | 50.65052 | 142.36811 | 34773 ft | 449 kts | 359° |
| 2026-04-30 19:31 | 50.74346 | 142.38668 | 34774 ft | 448 kts | 359° |
| 2026-04-30 19:32 | 50.80538 | 142.39901 | 34773 ft | 448 kts | 359° |
| 2026-04-30 19:32 | 50.86729 | 142.41146 | 34770 ft | 448 kts | 359° |
| 2026-04-30 19:33 | 50.92863 | 142.42383 | 34767 ft | 447 kts | 359° |
| 2026-04-30 19:33 | 50.99037 | 142.43621 | 34761 ft | 447 kts | 359° |
| 2026-04-30 19:34 | 51.05221 | 142.44870 | 34749 ft | 447 kts | 359° |
| 2026-04-30 19:35 | 51.14482 | 142.46750 | 34748 ft | 447 kts | 359° |
| 2026-04-30 19:35 | 51.20665 | 142.48009 | 34745 ft | 447 kts | 359° |
| 2026-04-30 19:36 | 51.26834 | 142.49270 | 34750 ft | 447 kts | 359° |
| 2026-04-30 19:36 | 51.36113 | 142.51181 | 34747 ft | 448 kts | 359° |
| 2026-04-30 19:37 | 51.41251 | 142.52230 | 34748 ft | 448 kts | 358° |
| 2026-04-30 19:37 | 51.47446 | 142.53498 | 34750 ft | 449 kts | 359° |
| 2026-04-30 19:38 | 51.53659 | 142.54793 | 34755 ft | 450 kts | 359° |
| 2026-04-30 19:38 | 51.59800 | 142.56068 | 34759 ft | 450 kts | 359° |
| 2026-04-30 19:39 | 51.66018 | 142.57361 | 34767 ft | 450 kts | 359° |
| 2026-04-30 19:39 | 51.72229 | 142.58660 | 34770 ft | 451 kts | 358° |
| 2026-04-30 19:40 | 51.78456 | 142.59956 | 34765 ft | 451 kts | 358° |
| 2026-04-30 19:40 | 51.84694 | 142.61074 | 34772 ft | 450 kts | 356° |
| 2026-04-30 19:41 | 51.90932 | 142.61989 | 34778 ft | 450 kts | 356° |
| 2026-04-30 19:41 | 51.97166 | 142.62904 | 34785 ft | 450 kts | 356° |
| 2026-04-30 19:42 | 52.03413 | 142.63890 | 34789 ft | 451 kts | 356° |
| 2026-04-30 19:42 | 52.09668 | 142.64907 | 34794 ft | 452 kts | 356° |
| 2026-04-30 19:43 | 52.15928 | 142.65910 | 34797 ft | 452 kts | 356° |
| 2026-04-30 19:44 | 52.25287 | 142.67392 | 34799 ft | 452 kts | 356° |
| 2026-04-30 19:44 | 52.31560 | 142.68404 | 34804 ft | 453 kts | 356° |
| 2026-04-30 19:45 | 52.37838 | 142.69420 | 34812 ft | 453 kts | 356° |
| 2026-04-30 19:45 | 52.44116 | 142.70434 | 34810 ft | 453 kts | 356° |
| 2026-04-30 19:46 | 52.50407 | 142.71458 | 34815 ft | 453 kts | 356° |
| 2026-04-30 19:46 | 52.56685 | 142.72486 | 34815 ft | 454 kts | 356° |
| 2026-04-30 19:47 | 52.62927 | 142.73532 | 34824 ft | 454 kts | 356° |
| 2026-04-30 19:47 | 52.69217 | 142.74573 | 34827 ft | 454 kts | 356° |
| 2026-04-30 19:48 | 52.75515 | 142.75626 | 34834 ft | 454 kts | 356° |
| 2026-04-30 19:48 | 52.81799 | 142.76682 | 34842 ft | 454 kts | 356° |
| 2026-04-30 19:49 | 52.88095 | 142.77737 | 34846 ft | 454 kts | 356° |
| 2026-04-30 19:49 | 52.97526 | 142.79280 | 34851 ft | 454 kts | 356° |
| 2026-04-30 19:50 | 53.03811 | 142.80305 | 34856 ft | 454 kts | 356° |
| 2026-04-30 19:50 | 53.10098 | 142.81342 | 34855 ft | 453 kts | 356° |
| 2026-04-30 19:51 | 53.16340 | 142.82380 | 34862 ft | 453 kts | 356° |
| 2026-04-30 19:51 | 53.22609 | 142.83419 | 34856 ft | 453 kts | 356° |
| 2026-04-30 19:52 | 53.28881 | 142.84470 | 34858 ft | 452 kts | 356° |
| 2026-04-30 19:52 | 53.35102 | 142.85515 | 34853 ft | 452 kts | 356° |
| 2026-04-30 19:53 | 53.41367 | 142.86566 | 34852 ft | 452 kts | 356° |
| 2026-04-30 19:53 | 53.47633 | 142.87617 | 34856 ft | 452 kts | 356° |
| 2026-04-30 19:54 | 53.50768 | 142.88481 | 34852 ft | 463 kts | 6° |
| 2026-04-30 19:54 | 53.53848 | 142.90239 | 34856 ft | 474 kts | 16° |
| 2026-04-30 19:54 | 53.59770 | 142.95359 | 34859 ft | 479 kts | 20° |
| 2026-04-30 19:55 | 53.65668 | 143.00559 | 34865 ft | 479 kts | 19° |
| 2026-04-30 19:55 | 53.71541 | 143.05715 | 34869 ft | 479 kts | 19° |
| 2026-04-30 19:56 | 53.77463 | 143.10930 | 34869 ft | 478 kts | 19° |
| 2026-04-30 19:56 | 53.83358 | 143.16155 | 34877 ft | 478 kts | 20° |
| 2026-04-30 19:57 | 53.89268 | 143.21326 | 34888 ft | 477 kts | 19° |
| 2026-04-30 19:57 | 53.95151 | 143.26341 | 34894 ft | 476 kts | 19° |
| 2026-04-30 19:58 | 54.01076 | 143.31385 | 34898 ft | 476 kts | 19° |
| 2026-04-30 19:58 | 54.06984 | 143.36484 | 34903 ft | 476 kts | 19° |
| 2026-04-30 19:59 | 54.12875 | 143.41622 | 34908 ft | 476 kts | 19° |
| 2026-04-30 20:00 | 54.21718 | 143.49338 | 34917 ft | 475 kts | 19° |
| 2026-04-30 20:00 | 54.27611 | 143.54490 | 34924 ft | 475 kts | 19° |
| 2026-04-30 20:01 | 54.36422 | 143.62242 | 34924 ft | 474 kts | 20° |
| 2026-04-30 20:01 | 54.42251 | 143.67397 | 34927 ft | 474 kts | 20° |
| 2026-04-30 20:02 | 54.51027 | 143.75162 | 34928 ft | 473 kts | 20° |
| 2026-04-30 20:03 | 54.59793 | 143.82951 | 34939 ft | 472 kts | 20° |
| 2026-04-30 20:03 | 54.65632 | 143.88178 | 34938 ft | 472 kts | 20° |
| 2026-04-30 20:04 | 54.71458 | 143.93413 | 34950 ft | 471 kts | 20° |
| 2026-04-30 20:05 | 54.80168 | 144.01264 | 34949 ft | 470 kts | 20° |
| 2026-04-30 20:05 | 54.88870 | 144.09128 | 34960 ft | 469 kts | 21° |
| 2026-04-30 20:06 | 54.94662 | 144.14384 | 34963 ft | 469 kts | 21° |
| 2026-04-30 20:06 | 55.00398 | 144.19605 | 34962 ft | 468 kts | 21° |
| 2026-04-30 20:07 | 55.06172 | 144.24903 | 34965 ft | 468 kts | 21° |
| 2026-04-30 20:08 | 55.14814 | 144.32834 | 34967 ft | 467 kts | 21° |
| 2026-04-30 20:08 | 55.20570 | 144.38122 | 34969 ft | 466 kts | 21° |
| 2026-04-30 20:09 | 55.26303 | 144.43424 | 34969 ft | 466 kts | 22° |
| 2026-04-30 20:09 | 55.34864 | 144.51397 | 34974 ft | 465 kts | 22° |
| 2026-04-30 20:10 | 55.43451 | 144.59428 | 34981 ft | 465 kts | 22° |
| 2026-04-30 20:11 | 55.51981 | 144.67438 | 34973 ft | 465 kts | 22° |
| 2026-04-30 20:11 | 55.57694 | 144.72808 | 34972 ft | 465 kts | 22° |
| 2026-04-30 20:12 | 55.66254 | 144.80894 | 34970 ft | 465 kts | 23° |
| 2026-04-30 20:13 | 55.71957 | 144.86317 | 34969 ft | 465 kts | 23° |
| 2026-04-30 20:13 | 55.77657 | 144.91763 | 34970 ft | 466 kts | 23° |
| 2026-04-30 20:14 | 55.83355 | 144.97259 | 34972 ft | 466 kts | 23° |
| 2026-04-30 20:14 | 55.89057 | 145.02761 | 34977 ft | 466 kts | 23° |
| 2026-04-30 20:15 | 55.94756 | 145.08284 | 34977 ft | 466 kts | 24° |
| 2026-04-30 20:15 | 56.00451 | 145.13834 | 34979 ft | 466 kts | 24° |
| 2026-04-30 20:16 | 56.06100 | 145.19348 | 34984 ft | 466 kts | 24° |
| 2026-04-30 20:16 | 56.11781 | 145.24920 | 34985 ft | 465 kts | 24° |
| 2026-04-30 20:17 | 56.17476 | 145.30492 | 34986 ft | 465 kts | 24° |
| 2026-04-30 20:17 | 56.23156 | 145.36045 | 34988 ft | 465 kts | 24° |
| 2026-04-30 20:18 | 56.28833 | 145.41623 | 34990 ft | 465 kts | 24° |
| 2026-04-30 20:18 | 56.34518 | 145.47235 | 34991 ft | 464 kts | 24° |
| 2026-04-30 20:19 | 56.40181 | 145.52832 | 34992 ft | 464 kts | 24° |
| 2026-04-30 20:19 | 56.45807 | 145.58417 | 34992 ft | 464 kts | 25° |
| 2026-04-30 20:20 | 56.51457 | 145.64048 | 34991 ft | 463 kts | 25° |
| 2026-04-30 20:20 | 56.57100 | 145.69704 | 34992 ft | 463 kts | 25° |
| 2026-04-30 20:21 | 56.62732 | 145.75368 | 34989 ft | 463 kts | 25° |
| 2026-04-30 20:21 | 56.68375 | 145.81041 | 34989 ft | 463 kts | 25° |
| 2026-04-30 20:22 | 56.74002 | 145.86713 | 34987 ft | 462 kts | 25° |
| 2026-04-30 20:22 | 56.79624 | 145.92421 | 34992 ft | 462 kts | 25° |
| 2026-04-30 20:23 | 56.85250 | 145.98148 | 34988 ft | 462 kts | 25° |
| 2026-04-30 20:23 | 56.90856 | 146.03885 | 34986 ft | 462 kts | 26° |
| 2026-04-30 20:24 | 56.95518 | 146.08666 | 34995 ft | 461 kts | 26° |
| 2026-04-30 20:24 | 57.02018 | 146.15349 | 34992 ft | 461 kts | 26° |
| 2026-04-30 20:25 | 57.09471 | 146.23041 | 34998 ft | 461 kts | 26° |
| 2026-04-30 20:26 | 57.17846 | 146.31737 | 34987 ft | 460 kts | 26° |
| 2026-04-30 20:26 | 57.26203 | 146.40431 | 34983 ft | 460 kts | 26° |
| 2026-04-30 20:27 | 57.37326 | 146.52097 | 34988 ft | 459 kts | 26° |
| 2026-04-30 20:28 | 57.48416 | 146.63838 | 34988 ft | 458 kts | 27° |
| 2026-04-30 20:30 | 57.62253 | 146.78584 | 34984 ft | 458 kts | 27° |
| 2026-04-30 20:31 | 57.78754 | 146.96357 | 34986 ft | 457 kts | 27° |
| 2026-04-30 20:32 | 57.92508 | 147.11320 | 34988 ft | 456 kts | 27° |
| 2026-04-30 20:33 | 58.00717 | 147.20339 | 34986 ft | 455 kts | 27° |
| 2026-04-30 20:34 | 58.08917 | 147.29369 | 34986 ft | 454 kts | 28° |
| 2026-04-30 20:35 | 58.17099 | 147.38437 | 34984 ft | 454 kts | 28° |
| 2026-04-30 20:35 | 58.25220 | 147.47490 | 34980 ft | 453 kts | 28° |
| 2026-04-30 20:36 | 58.30653 | 147.53573 | 34978 ft | 452 kts | 28° |
| 2026-04-30 20:37 | 58.38783 | 147.62710 | 34975 ft | 452 kts | 28° |
| 2026-04-30 20:37 | 58.44154 | 147.68773 | 34972 ft | 451 kts | 28° |
| 2026-04-30 20:38 | 58.49557 | 147.74897 | 34971 ft | 451 kts | 28° |
| 2026-04-30 20:38 | 58.54960 | 147.81032 | 34968 ft | 451 kts | 28° |
| 2026-04-30 20:39 | 58.63032 | 147.90259 | 34965 ft | 450 kts | 28° |
| 2026-04-30 20:40 | 58.71096 | 147.99538 | 34963 ft | 450 kts | 28° |
| 2026-04-30 20:40 | 58.76463 | 148.05738 | 34958 ft | 449 kts | 28° |
| 2026-04-30 20:41 | 58.84478 | 148.15018 | 34954 ft | 449 kts | 28° |
| 2026-04-30 20:41 | 58.89831 | 148.21255 | 34948 ft | 449 kts | 28° |
| 2026-04-30 20:42 | 58.95173 | 148.27497 | 34703 ft | 449 kts | 28° |
| 2026-04-30 20:42 | 59.00527 | 148.33791 | 33330 ft | 454 kts | 28° |
| 2026-04-30 20:43 | 59.03231 | 148.36982 | 32286 ft | 458 kts | 28° |
| 2026-04-30 20:43 | 59.05972 | 148.40216 | 31253 ft | 462 kts | 28° |
| 2026-04-30 20:43 | 59.08108 | 148.42796 | 30418 ft | 465 kts | 30° |
| 2026-04-30 20:44 | 59.13598 | 148.49412 | 28401 ft | 463 kts | 28° |
| 2026-04-30 20:44 | 59.16350 | 148.52635 | 27554 ft | 458 kts | 28° |
| 2026-04-30 20:44 | 59.21562 | 148.58749 | 26186 ft | 443 kts | 28° |
| 2026-04-30 20:45 | 59.26754 | 148.64927 | 24826 ft | 431 kts | 28° |
| 2026-04-30 20:45 | 59.29236 | 148.67908 | 24186 ft | 426 kts | 28° |
| 2026-04-30 20:45 | 59.31770 | 148.70959 | 23524 ft | 421 kts | 28° |
| 2026-04-30 20:46 | 59.39104 | 148.79788 | 21639 ft | 403 kts | 28° |
| 2026-04-30 20:46 | 59.41473 | 148.82649 | 21104 ft | 397 kts | 28° |
| 2026-04-30 20:47 | 59.46125 | 148.88294 | 20060 ft | 388 kts | 28° |
| 2026-04-30 20:47 | 59.48408 | 148.91077 | 19562 ft | 385 kts | 28° |
| 2026-04-30 20:48 | 59.52928 | 148.96579 | 18595 ft | 379 kts | 28° |
| 2026-04-30 20:48 | 59.55165 | 148.99309 | 18113 ft | 376 kts | 28° |
| 2026-04-30 20:48 | 59.57381 | 149.02015 | 17597 ft | 372 kts | 29° |
| 2026-04-30 20:48 | 59.59548 | 149.04668 | 17124 ft | 368 kts | 29° |
| 2026-04-30 20:49 | 59.61709 | 149.07321 | 16652 ft | 364 kts | 29° |
| 2026-04-30 20:49 | 59.63843 | 149.09944 | 16169 ft | 360 kts | 29° |
| 2026-04-30 20:49 | 59.65916 | 149.12694 | 15682 ft | 358 kts | 36° |
| 2026-04-30 20:50 | 59.69147 | 149.20117 | 14680 ft | 358 kts | 58° |
| 2026-04-30 20:50 | 59.70316 | 149.24464 | 14164 ft | 357 kts | 60° |
| 2026-04-30 20:50 | 59.71471 | 149.28791 | 13640 ft | 355 kts | 60° |
| 2026-04-30 20:50 | 59.72629 | 149.33108 | 13069 ft | 352 kts | 60° |
| 2026-04-30 20:51 | 59.73769 | 149.37356 | 12553 ft | 348 kts | 60° |
| 2026-04-30 20:51 | 59.76021 | 149.45786 | 11486 ft | 343 kts | 60° |
| 2026-04-30 20:51 | 59.77129 | 149.49945 | 10947 ft | 340 kts | 60° |
| 2026-04-30 20:52 | 59.78228 | 149.54079 | 10587 ft | 333 kts | 60° |
| 2026-04-30 20:52 | 59.79280 | 149.58065 | 10458 ft | 319 kts | 60° |
| 2026-04-30 20:52 | 59.81262 | 149.65573 | 10194 ft | 296 kts | 60° |
| 2026-04-30 20:53 | 59.82202 | 149.69132 | 10040 ft | 287 kts | 60° |
| 2026-04-30 20:53 | 59.83120 | 149.72624 | 9796 ft | 282 kts | 60° |
| 2026-04-30 20:53 | 59.84020 | 149.76062 | 9665 ft | 280 kts | 60° |
| 2026-04-30 20:54 | 59.85824 | 149.82946 | 8949 ft | 284 kts | 61° |
| 2026-04-30 20:54 | 59.86735 | 149.86406 | 8627 ft | 280 kts | 61° |
| 2026-04-30 20:54 | 59.87621 | 149.89793 | 8213 ft | 279 kts | 61° |
| 2026-04-30 20:55 | 59.89401 | 149.96644 | 7394 ft | 278 kts | 61° |
| 2026-04-30 20:55 | 59.90283 | 150.00063 | 6995 ft | 276 kts | 61° |
| 2026-04-30 20:55 | 59.91164 | 150.03466 | 6603 ft | 275 kts | 61° |
| 2026-04-30 20:56 | 59.92530 | 150.10738 | 5218 ft | 294 kts | 84° |
| 2026-04-30 20:56 | 59.92485 | 150.14749 | 4921 ft | 280 kts | 92° |
| 2026-04-30 20:56 | 59.92421 | 150.17249 | 4836 ft | 265 kts | 92° |
| 2026-04-30 20:57 | 59.92364 | 150.20766 | 4736 ft | 242 kts | 91° |
| 2026-04-30 20:57 | 59.92308 | 150.23953 | 4616 ft | 224 kts | 92° |
| 2026-04-30 20:58 | 59.92168 | 150.29790 | 4432 ft | 203 kts | 92° |
| 2026-04-30 20:58 | 59.92089 | 150.32593 | 4284 ft | 198 kts | 93° |
| 2026-04-30 20:58 | 59.92013 | 150.35302 | 4043 ft | 196 kts | 92° |
| 2026-04-30 20:58 | 59.91968 | 150.37106 | 3865 ft | 197 kts | 92° |
| 2026-04-30 20:59 | 59.91836 | 150.42592 | 3309 ft | 185 kts | 92° |
| 2026-04-30 20:59 | 59.91776 | 150.45098 | 3061 ft | 178 kts | 92° |
| 2026-04-30 21:00 | 59.91664 | 150.49707 | 2604 ft | 161 kts | 93° |
| 2026-04-30 21:00 | 59.91554 | 150.54136 | 2134 ft | 149 kts | 93° |
| 2026-04-30 21:01 | 59.91458 | 150.57942 | 1667 ft | 134 kts | 92° |
| 2026-04-30 21:01 | 59.91410 | 150.59773 | 1410 ft | 131 kts | 92° |
| 2026-04-30 21:01 | 59.91319 | 150.63350 | 1101 ft | 128 kts | 92° |
| 2026-04-30 21:02 | 59.91273 | 150.65113 | 936 ft | 127 kts | 92° |
| 2026-04-30 21:02 | 59.91231 | 150.66869 | 780 ft | 126 kts | 92° |
| 2026-04-30 21:02 | 59.91183 | 150.68612 | 658 ft | 125 kts | 93° |
| 2026-04-30 21:02 | 59.91137 | 150.70336 | 587 ft | 120 kts | 92° |
| 2026-04-30 21:03 | 59.91108 | 150.71632 | 584 ft | 59 kts | 93° |
| 2026-04-30 21:03 | 59.91097 | 150.72062 | 581 ft | 38 kts | 93° |
| 2026-04-30 21:03 | 59.91083 | 150.72585 | 584 ft | 23 kts | 92° |
| 2026-04-30 21:03 | 59.91170 | 150.72680 | 583 ft | 12 kts | 1° |
| 2026-04-30 21:04 | 59.91237 | 150.72685 | 583 ft | 10 kts | 2° |
| 2026-04-30 21:04 | 59.91294 | 150.72650 | 583 ft | 8 kts | 294° |
| 2026-04-30 21:04 | 59.91301 | 150.72465 | 583 ft | 8 kts | 276° |
| 2026-04-30 21:05 | 59.91306 | 150.72338 | 583 ft | 10 kts | 273° |
| 2026-04-30 21:05 | 59.91310 | 150.72190 | 583 ft | 12 kts | 273° |
| 2026-04-30 21:05 | 59.91318 | 150.72021 | 583 ft | 13 kts | 293° |
| 2026-04-30 21:05 | 59.91365 | 150.71999 | 583 ft | 6 kts | 5° |
| 2026-04-30 21:06 | 59.91376 | 150.72000 | 583 ft | 1 kts | 3° |
| 2026-04-30 21:06 | 59.91378 | 150.72000 | 583 ft | 0 kts | 3° |